createdAt,value
2018-07-04T00:57:32.568Z,99.90
2018-07-04T01:00:12.310Z,99.90
2018-07-04T01:02:52.117Z,99.90
2018-07-04T01:05:32.012Z,99.90
2018-07-04T01:08:12.145Z,99.90
2018-07-04T01:10:51.728Z,99.90
2018-07-04T01:13:31.862Z,99.90
2018-07-04T01:16:11.389Z,99.90
2018-07-04T01:18:51.364Z,99.90
2018-07-04T01:21:30.848Z,99.90
2018-07-04T01:24:11.346Z,99.90
2018-07-04T01:26:51.008Z,99.90
2018-07-04T01:29:31.260Z,99.90
2018-07-04T01:32:10.908Z,99.90
2018-07-04T01:34:51.237Z,99.90
2018-07-04T01:37:30.781Z,99.90
2018-07-04T01:40:10.936Z,99.90
2018-07-04T01:42:50.544Z,99.90
2018-07-04T01:45:30.540Z,99.90
2018-07-04T01:48:10.002Z,99.90
2018-07-04T01:50:49.816Z,99.90
2018-07-04T01:53:29.344Z,99.90
2018-07-04T01:56:09.321Z,99.90
2018-07-04T01:58:49.158Z,99.90
2018-07-04T02:01:29.530Z,99.90
2018-07-04T02:04:09.107Z,99.90
2018-07-04T02:06:49.217Z,99.90
2018-07-04T02:09:28.824Z,99.90
2018-07-04T02:12:08.693Z,99.90
2018-07-04T02:14:48.511Z,99.90
2018-07-04T02:17:28.111Z,99.90
2018-07-04T02:20:08.092Z,99.90
2018-07-04T02:22:47.672Z,99.90
2018-07-04T02:25:27.940Z,99.90
2018-07-04T02:28:07.561Z,99.90
2018-07-04T02:33:21.313Z,99.90
2018-07-04T02:36:01.918Z,99.90
2018-07-04T02:38:41.410Z,99.90
2018-07-04T02:41:21.389Z,99.90
2018-07-04T02:44:01.158Z,99.90
2018-07-04T02:46:41.517Z,99.90
2018-07-04T02:49:21.825Z,99.90
2018-07-04T02:52:02.154Z,99.90
2018-07-04T02:54:41.884Z,99.90
2018-07-04T02:57:21.816Z,99.90
2018-07-04T03:00:01.759Z,99.90
2018-07-04T03:02:41.267Z,99.90
2018-07-04T03:05:21.350Z,99.90
2018-07-04T03:08:01.132Z,99.90
2018-07-04T03:10:41.153Z,99.90
2018-07-04T03:13:20.849Z,99.90
2018-07-04T03:16:00.949Z,99.90
2018-07-04T03:18:40.558Z,99.90
2018-07-04T03:21:20.641Z,99.90
2018-07-04T03:24:00.189Z,99.90
2018-07-04T03:26:40.372Z,99.90
2018-07-04T03:29:19.973Z,99.90
2018-07-04T03:31:59.934Z,99.90
2018-07-04T03:34:39.639Z,99.90
2018-07-04T03:37:19.827Z,99.90
2018-07-04T03:39:59.309Z,99.90
2018-07-04T03:42:39.117Z,99.90
2018-07-04T03:45:18.727Z,99.90
2018-07-04T03:47:58.617Z,99.90
2018-07-04T03:50:38.162Z,99.90
2018-07-04T03:53:17.992Z,99.90
2018-07-04T03:55:57.469Z,99.90
2018-07-04T03:58:37.277Z,99.90
2018-07-04T04:01:16.861Z,99.90
2018-07-04T04:03:56.672Z,99.90
2018-07-04T04:06:36.532Z,99.90
2018-07-04T04:09:17.101Z,99.90
2018-07-04T04:11:56.641Z,99.90
2018-07-04T04:14:36.524Z,99.90
2018-07-04T04:17:16.258Z,99.90
2018-07-04T04:19:56.750Z,99.90
2018-07-04T04:22:36.328Z,99.90
2018-07-04T04:25:16.258Z,99.90
2018-07-04T04:27:55.846Z,99.90
2018-07-04T04:30:35.784Z,99.90
2018-07-04T04:33:15.560Z,99.90
2018-07-04T04:35:55.759Z,99.90
2018-07-04T04:38:36.657Z,99.90
2018-07-04T04:41:16.906Z,99.90
2018-07-04T04:43:56.915Z,99.90
2018-07-04T04:46:37.011Z,99.90
2018-07-04T04:49:16.740Z,99.90
2018-07-04T04:51:57.121Z,99.90
2018-07-04T04:54:36.661Z,99.90
2018-07-04T04:57:16.763Z,99.90
2018-07-04T04:59:56.973Z,99.90
2018-07-04T05:02:36.775Z,99.90
2018-07-04T05:05:16.676Z,99.90
2018-07-04T05:07:56.213Z,99.90
2018-07-04T05:10:36.764Z,99.90
2018-07-04T05:13:16.510Z,99.90
2018-07-04T05:15:56.738Z,99.90
2018-07-04T05:18:36.316Z,99.90
2018-07-04T05:21:16.462Z,99.90
2018-07-04T05:23:56.106Z,99.90
2018-07-04T05:26:38.911Z,99.90
2018-07-04T05:29:18.744Z,99.90
2018-07-04T05:31:58.698Z,99.90
2018-07-04T05:34:38.380Z,99.90
2018-07-04T05:37:18.605Z,99.90
2018-07-04T05:39:58.316Z,99.90
2018-07-04T05:42:38.388Z,99.90
2018-07-04T05:45:17.963Z,99.90
2018-07-04T05:47:58.093Z,99.90
2018-07-04T05:50:38.054Z,99.90
2018-07-04T05:53:18.671Z,99.90
2018-07-04T05:55:58.796Z,99.90
2018-07-04T05:58:38.716Z,99.90
2018-07-04T06:01:18.467Z,99.90
2018-07-04T06:03:58.766Z,99.90
2018-07-04T06:06:38.662Z,99.90
2018-07-04T06:09:18.578Z,99.90
2018-07-04T06:20:36.214Z,99.90
2018-07-04T06:23:15.777Z,99.90
2018-07-04T06:25:55.805Z,99.90
2018-07-04T06:28:36.351Z,99.90
2018-07-04T06:31:16.940Z,99.90
2018-07-04T06:33:56.593Z,99.90
2018-07-04T06:36:36.748Z,99.90
2018-07-04T06:39:04.709Z,99.90
2018-07-04T06:41:32.240Z,99.90
2018-07-04T06:43:59.629Z,99.90
2018-07-04T06:46:26.923Z,99.90
2018-07-04T06:48:54.542Z,99.90
2018-07-04T06:51:22.165Z,99.90
2018-07-04T06:53:49.494Z,99.90
2018-07-04T06:56:16.823Z,99.90
2018-07-04T06:58:45.490Z,99.90
2018-07-04T07:01:12.985Z,99.90
2018-07-04T07:03:53.213Z,99.90
2018-07-04T07:06:33.427Z,99.90
2018-07-04T07:09:13.784Z,99.80
2018-07-04T07:11:53.635Z,96.70
2018-07-04T07:14:33.669Z,92.30
2018-07-04T07:17:13.282Z,89.90
2018-07-04T07:19:53.653Z,85.70
2018-07-04T07:22:33.314Z,86.50
2018-07-04T07:25:14.170Z,85.40
2018-07-04T07:27:54.137Z,81.90
2018-07-04T07:30:34.747Z,76.60
2018-07-04T07:33:15.348Z,82.70
2018-07-04T07:35:55.545Z,76.00
2018-07-04T07:38:35.544Z,78.50
2018-07-04T07:41:15.140Z,78.60
2018-07-04T07:43:55.467Z,74.00
2018-07-04T07:46:35.554Z,72.90
2018-07-04T07:49:16.354Z,77.50
2018-07-04T07:51:56.595Z,76.60
2018-07-04T07:54:36.385Z,84.60
2018-07-04T07:57:16.376Z,83.90
2018-07-04T07:59:56.191Z,84.10
2018-07-04T08:02:36.910Z,86.10
2018-07-04T08:05:16.458Z,90.40
2018-07-04T08:07:57.422Z,90.80
2018-07-04T08:10:37.436Z,89.40
2018-07-04T08:13:17.721Z,90.50
2018-07-04T08:15:57.624Z,91.50
2018-07-04T08:18:38.439Z,92.60
2018-07-04T08:21:18.081Z,94.70
2018-07-04T08:23:59.249Z,91.90
2018-07-04T08:26:39.288Z,88.70
2018-07-04T08:29:21.025Z,91.00
2018-07-04T08:32:00.653Z,91.70
2018-07-04T08:34:40.606Z,85.70
2018-07-04T08:37:21.237Z,80.70
2018-07-04T08:40:01.436Z,69.10
2018-07-04T08:42:41.125Z,68.20
2018-07-04T08:45:21.209Z,57.60
2018-07-04T08:48:01.468Z,56.30
2018-07-04T08:50:41.662Z,55.60
2018-07-04T08:53:21.166Z,56.40
2018-07-04T08:56:01.881Z,57.40
2018-07-04T08:58:41.530Z,52.90
2018-07-04T09:01:21.473Z,55.70
2018-07-04T09:04:01.800Z,56.90
2018-07-04T09:06:41.582Z,48.10
2018-07-04T09:09:21.814Z,50.30
2018-07-04T09:12:01.614Z,47.50
2018-07-04T09:17:15.969Z,54.30
2018-07-04T09:19:56.686Z,59.30
2018-07-04T09:22:37.769Z,55.50
2018-07-04T09:25:17.189Z,51.30
2018-07-04T09:27:58.106Z,50.20
2018-07-04T09:30:37.700Z,52.20
2018-07-04T09:33:18.159Z,49.20
2018-07-04T09:35:57.715Z,51.20
2018-07-04T09:38:37.761Z,48.90
2018-07-04T09:41:17.345Z,51.40
2018-07-04T09:43:57.859Z,51.70
2018-07-04T09:46:37.841Z,52.70
2018-07-04T09:49:17.978Z,55.50
2018-07-04T09:51:57.617Z,52.90
2018-07-04T09:54:37.556Z,53.60
2018-07-04T09:57:17.270Z,56.10
2018-07-04T09:59:57.758Z,57.70
2018-07-04T10:02:37.456Z,59.80
2018-07-04T10:05:17.559Z,59.20
2018-07-04T10:07:57.866Z,53.70
2018-07-04T10:10:37.497Z,51.40
2018-07-04T10:13:17.408Z,54.50
2018-07-04T10:15:57.343Z,54.10
2018-07-04T10:18:37.698Z,49.80
2018-07-04T10:21:17.227Z,48.90
2018-07-04T10:23:57.123Z,48.40
2018-07-04T10:26:36.572Z,49.70
2018-07-04T10:29:16.644Z,52.50
2018-07-04T10:31:56.141Z,49.60
2018-07-04T10:34:36.688Z,53.10
2018-07-04T10:37:16.658Z,53.50
2018-07-04T10:39:56.612Z,49.10
2018-07-04T10:42:36.560Z,51.80
2018-07-04T10:45:16.160Z,55.60
2018-07-04T10:47:56.948Z,53.10
2018-07-04T10:50:36.447Z,55.70
2018-07-04T10:53:16.740Z,54.60
2018-07-04T10:55:56.349Z,55.70
2018-07-04T10:58:36.964Z,56.70
2018-07-04T11:01:16.755Z,55.90
2018-07-04T11:03:56.695Z,56.80
2018-07-04T11:06:36.324Z,56.40
2018-07-04T11:09:17.103Z,51.80
2018-07-04T11:11:57.322Z,53.70
2018-07-04T11:14:37.569Z,58.40
2018-07-04T11:17:17.341Z,60.40
2018-07-04T11:19:57.520Z,65.90
2018-07-04T11:22:37.199Z,71.30
2018-07-04T11:25:17.464Z,85.10
2018-07-04T11:27:57.292Z,99.90
2018-07-04T11:30:38.383Z,99.90
2018-07-04T11:33:18.025Z,99.90
2018-07-04T11:35:58.393Z,99.90
2018-07-04T11:38:38.053Z,99.90
2018-07-04T11:41:19.742Z,99.90
2018-07-04T11:43:59.879Z,99.90
2018-07-04T11:46:28.409Z,99.90
2018-07-04T11:48:56.169Z,99.90
2018-07-04T11:51:23.480Z,99.90
2018-07-04T11:53:50.811Z,99.90
2018-07-04T11:56:18.498Z,99.90
2018-07-04T11:58:46.965Z,99.90
2018-07-04T12:01:14.871Z,99.90
2018-07-04T12:03:55.036Z,99.90
2018-07-04T12:06:34.635Z,99.90
2018-07-04T12:09:04.202Z,99.90
2018-07-04T12:11:32.075Z,99.90
2018-07-04T12:13:59.581Z,99.90
2018-07-04T12:16:27.032Z,99.90
2018-07-04T12:18:54.855Z,99.90
2018-07-04T12:21:22.162Z,99.90
2018-07-04T12:23:49.539Z,99.90
2018-07-04T12:26:16.832Z,99.90
2018-07-04T12:28:44.135Z,99.90
2018-07-04T12:31:11.442Z,99.90
2018-07-04T12:33:38.757Z,99.90
2018-07-04T12:36:06.061Z,99.90
2018-07-04T12:38:34.273Z,99.90
2018-07-04T12:41:01.746Z,99.90
2018-07-04T12:43:30.172Z,99.90
2018-07-04T12:45:57.452Z,99.90
2018-07-04T12:48:26.408Z,99.90
2018-07-04T12:50:54.280Z,98.80
2018-07-04T12:53:21.569Z,98.50
2018-07-04T12:56:02.113Z,92.70
2018-07-04T12:58:41.937Z,98.20
2018-07-04T13:01:21.711Z,99.90
2018-07-04T13:04:01.513Z,99.80
2018-07-04T13:06:42.327Z,93.30
2018-07-04T13:09:22.907Z,92.50
2018-07-04T13:12:03.374Z,91.60
2018-07-04T13:14:43.261Z,91.50
2018-07-04T13:17:24.173Z,95.10
2018-07-04T13:20:04.158Z,91.80
2018-07-04T13:22:44.886Z,91.70
2018-07-04T13:25:25.266Z,93.60
2018-07-04T13:28:05.011Z,79.80
2018-07-04T13:30:45.570Z,85.40
2018-07-04T13:33:25.510Z,84.10
2018-07-04T13:36:05.197Z,80.70
2018-07-04T13:38:45.944Z,88.60
2018-07-04T13:41:25.409Z,91.90
2018-07-04T13:44:05.291Z,78.50
2018-07-04T13:46:45.143Z,91.00
2018-07-04T13:51:59.654Z,88.80
2018-07-04T13:54:39.295Z,85.00
2018-07-04T13:57:21.283Z,90.20
2018-07-04T14:00:01.136Z,91.60
2018-07-04T14:02:41.325Z,93.50
2018-07-04T14:05:21.156Z,92.40
2018-07-04T14:08:01.522Z,93.30
2018-07-04T14:10:41.669Z,94.00
2018-07-04T14:13:21.541Z,94.80
2018-07-04T14:16:01.232Z,95.40
2018-07-04T14:18:41.437Z,95.10
2018-07-04T14:21:21.164Z,96.00
2018-07-04T14:24:01.295Z,95.00
2018-07-04T14:26:41.121Z,96.60
2018-07-04T14:29:21.706Z,96.90
2018-07-04T14:32:01.659Z,97.90
2018-07-04T14:34:42.395Z,99.80
2018-07-04T14:37:21.994Z,99.90
2018-07-04T14:40:02.830Z,99.90
2018-07-04T14:42:42.752Z,99.90
2018-07-04T14:45:23.945Z,99.90
2018-07-04T14:48:04.899Z,99.90
2018-07-04T14:53:19.496Z,99.90
2018-07-04T14:55:59.301Z,99.90
2018-07-04T14:58:40.321Z,99.90
2018-07-04T15:01:20.487Z,99.90
2018-07-04T15:04:00.142Z,99.90
2018-07-04T15:06:42.033Z,99.90
2018-07-04T15:09:22.888Z,99.90
2018-07-04T15:12:02.749Z,99.90
2018-07-04T15:14:42.436Z,99.90
2018-07-04T15:17:23.158Z,99.90
2018-07-04T15:20:04.234Z,99.90
2018-07-04T15:22:43.870Z,99.90
2018-07-04T15:25:23.823Z,99.90
2018-07-04T15:28:03.624Z,99.90
2018-07-04T15:30:44.428Z,99.90
2018-07-04T15:33:24.341Z,99.90
2018-07-04T15:36:05.575Z,99.90
2018-07-04T15:38:45.565Z,99.90
2018-07-04T15:41:26.384Z,99.90
2018-07-04T15:44:08.584Z,99.90
2018-07-04T15:46:50.556Z,99.90
2018-07-04T15:49:30.389Z,99.90
2018-07-04T15:55:03.034Z,99.90
2018-07-04T15:57:46.412Z,99.90
2018-07-04T16:00:27.449Z,99.90
2018-07-04T16:03:09.053Z,99.90
2018-07-04T16:05:50.154Z,98.00
2018-07-04T16:08:31.063Z,99.90
2018-07-04T16:11:13.214Z,99.80
2018-07-04T16:13:55.116Z,98.60
2018-07-04T16:16:35.538Z,96.20
2018-07-04T16:19:15.384Z,97.50
2018-07-04T16:21:55.537Z,97.20
2018-07-04T16:24:35.438Z,97.10
2018-07-04T16:27:16.365Z,96.80
2018-07-04T16:29:55.989Z,98.00
2018-07-04T16:32:36.071Z,96.70
2018-07-04T16:35:15.928Z,97.40
2018-07-04T16:37:57.266Z,97.20
2018-07-04T16:40:36.955Z,96.70
2018-07-04T16:43:17.551Z,96.80
2018-07-04T16:45:57.385Z,96.90
2018-07-04T16:48:38.401Z,96.00
2018-07-04T16:51:18.193Z,97.70
2018-07-04T16:53:58.106Z,96.90
2018-07-04T16:56:38.186Z,97.80
2018-07-04T16:59:19.025Z,97.80
2018-07-04T17:01:58.888Z,97.60
2018-07-04T17:04:39.654Z,98.20
2018-07-04T17:07:19.610Z,97.20
2018-07-04T17:09:59.829Z,99.30
2018-07-04T17:12:40.358Z,98.40
2018-07-04T17:15:20.769Z,99.90
2018-07-04T17:18:01.043Z,97.50
2018-07-04T17:20:46.094Z,99.00
2018-07-04T17:23:25.739Z,99.00
2018-07-04T17:26:05.825Z,98.10
2018-07-04T17:28:45.512Z,97.70
2018-07-04T17:31:25.896Z,98.30
2018-07-04T17:34:05.720Z,97.90
2018-07-04T17:36:46.419Z,97.30
2018-07-04T17:39:26.167Z,97.20
2018-07-04T17:42:06.924Z,97.10
2018-07-04T17:44:46.512Z,97.90
2018-07-04T17:47:27.282Z,97.90
2018-07-04T17:50:07.077Z,98.30
2018-07-04T17:52:48.073Z,98.10
2018-07-04T17:55:28.085Z,98.10
2018-07-04T17:58:08.974Z,98.30
2018-07-04T18:00:48.916Z,98.60
2018-07-04T18:03:29.541Z,98.60
2018-07-04T18:06:10.297Z,99.00
2018-07-04T18:08:50.994Z,99.00
2018-07-04T18:11:31.291Z,98.50
2018-07-04T18:14:11.051Z,97.90
2018-07-04T18:16:51.533Z,97.70
2018-07-04T18:19:31.841Z,97.90
2018-07-04T18:22:11.933Z,98.20
2018-07-04T18:24:51.672Z,98.30
2018-07-04T18:27:32.074Z,98.90
2018-07-04T18:30:12.013Z,99.20
2018-07-04T18:32:52.126Z,99.30
2018-07-04T18:35:32.163Z,99.90
2018-07-04T18:38:12.737Z,99.90
2018-07-04T18:40:52.532Z,99.90
2018-07-04T18:43:32.543Z,99.90
2018-07-04T18:46:12.146Z,99.90
2018-07-04T18:48:53.010Z,99.90
2018-07-04T18:51:32.855Z,99.90
2018-07-04T18:54:13.402Z,99.90
2018-07-04T18:56:53.272Z,99.90
2018-07-04T18:59:33.363Z,99.90
2018-07-04T19:02:13.191Z,99.90
2018-07-04T19:04:53.882Z,99.90
2018-07-04T19:07:33.994Z,99.90
2018-07-04T19:10:15.031Z,99.90
2018-07-04T19:12:54.817Z,99.90
2018-07-04T19:15:35.418Z,99.90
2018-07-04T19:18:15.136Z,99.90
2018-07-04T19:20:55.852Z,99.90
2018-07-04T19:23:35.919Z,99.90
2018-07-04T19:26:16.229Z,99.90
2018-07-04T19:28:56.239Z,99.90
2018-07-04T19:31:36.158Z,99.90
2018-07-04T19:34:15.845Z,99.90
2018-07-04T19:37:01.284Z,99.90
2018-07-04T19:39:41.644Z,99.90
2018-07-04T19:42:22.438Z,99.90
2018-07-04T19:45:02.024Z,99.90
2018-07-04T19:47:42.363Z,99.90
2018-07-04T19:50:22.125Z,99.90
2018-07-04T19:53:02.362Z,99.90
2018-07-04T19:55:42.774Z,99.90
2018-07-04T19:58:22.405Z,99.90
2018-07-04T20:01:02.664Z,99.90
2018-07-04T20:03:42.281Z,99.90
2018-07-04T20:08:56.650Z,99.90
2018-07-04T20:11:37.226Z,99.90
2018-07-04T20:14:17.319Z,99.90
2018-07-04T20:16:57.025Z,99.90
2018-07-04T20:19:37.809Z,99.90
2018-07-04T20:22:17.633Z,99.90
2018-07-04T20:24:57.798Z,99.90
2018-07-04T20:27:37.966Z,99.90
2018-07-04T20:30:17.926Z,99.90
2018-07-04T20:32:57.542Z,99.90
2018-07-04T20:35:38.032Z,99.90
2018-07-04T20:38:17.823Z,99.90
2018-07-04T20:40:57.918Z,99.90
2018-07-04T20:43:37.788Z,99.90
2018-07-04T20:46:18.637Z,99.90
2018-07-04T20:48:58.401Z,99.90
2018-07-04T20:51:38.962Z,99.90
2018-07-04T20:54:19.072Z,99.90
2018-07-04T20:56:58.848Z,99.90
2018-07-04T20:59:39.242Z,99.90
2018-07-04T21:02:19.023Z,99.90
2018-07-04T21:04:58.894Z,99.90
2018-07-04T21:07:38.564Z,99.90
2018-07-04T21:10:18.589Z,99.90
2018-07-04T21:12:58.542Z,99.90
2018-07-04T21:15:40.264Z,99.90
2018-07-04T21:18:19.935Z,99.90
2018-07-04T21:21:00.751Z,99.90
2018-07-04T21:23:40.415Z,99.90
2018-07-04T21:26:20.432Z,99.90
2018-07-04T21:29:00.574Z,99.90
2018-07-04T21:31:41.557Z,99.90
2018-07-04T21:34:21.162Z,99.90
2018-07-04T21:37:01.862Z,99.90
2018-07-04T21:39:41.550Z,99.90
2018-07-04T21:42:22.677Z,99.90
2018-07-04T21:45:03.033Z,99.90
2018-07-04T21:47:43.904Z,99.90
2018-07-04T21:52:58.332Z,99.90
